Dugway, UT

10:04 PM MST on February 07, 2016 (GMT -0700)
MesoWest | | Change Station
CLOSE
Current Station
Personal Weather Station
Location: Dugway, UT
Elevation: 4362 ft
Nearby Weather Stations

Elev 4362 ft 40.16 °N, 112.89 °W | Updated 24 minutes ago

Partly Cloudy
Partly Cloudy
23 °F
Feels Like 18 °F
N
4
Wind Variable Wind from SSE
Gusts 5.0 mph

Today
High -- | Low -- °F
--% Chance of Precip.
Yesterday
High -- | Low -- °F
Precip. -- in
Pressure 30.66 in
Visibility 10.0 miles
Clouds Clear
Windchill 18 °F
Dew Point 23 °F
Humidity 98%
Rainfall in
Snow Depth Not available.
7:34 AM 5:56 PM
Waning Crescent, 0% visible
METAR KU42 080455Z AUTO 00000KT 10SM CLR M02/M05 A3066 RMK AO1 T10251050
Pressure 30.66 in
Visibility 10.0 miles
Clouds Clear
Windchill 18 °F
Dew Point 23 °F
Humidity 98%
Rainfall in
Snow Depth Not available.
7:34 AM 5:56 PM
Waning Crescent, 0% visible
METAR KU42 080455Z AUTO 00000KT 10SM CLR M02/M05 A3066 RMK AO1 T10251050

10-Day Weather Forecast

Almanac

Astronomy

Feb. 07, 2016 Rise Set
Actual Time
Civil Twilight
Nautical Twilight
Astronomical Twilight
Moon
Length of Visible Light
Length of Day
Tomorrow will be .
, % of the Moon is Illuminated

Today's Extremes

State Highs State Lows

Community

WunderPhotos

Upload Photos

1,891,382 photos uploaded!

WunderBlog® & News

Nearby

Air Quality

  Air Quality AQ Index Pollutant
Not available.

Snow Depth

Station Depth Elevation

Earthquake Activity

City Distance Mag. Time & Date
Minimum magnitude displayed is 2.5.

Coastal Water Temperatures

Place Temperature

Stations

Nearby Weather Stations

Station Location Temp. Windchill Dew Point Humidity Wind Precip. Elev Updated Type
                   

Watches & Warnings

There are currently no watches in effect.